createdAt,value
2022-11-16T00:00:10.628Z,6.53
2022-11-16T00:02:58.364Z,7.10
2022-11-16T00:05:45.648Z,11.63
2022-11-16T00:08:35.209Z,6.90
2022-11-16T00:11:22.841Z,5.33
2022-11-16T00:14:11.135Z,6.73
2022-11-16T00:16:59.124Z,7.47
2022-11-16T00:19:48.025Z,7.37
2022-11-16T00:22:35.344Z,10.40
2022-11-16T00:25:23.110Z,6.80
2022-11-16T00:28:10.612Z,6.13
2022-11-16T00:31:05.502Z,8.60
2022-11-16T00:33:53.015Z,8.97
2022-11-16T00:36:40.873Z,7.17
2022-11-16T00:39:28.169Z,6.33
2022-11-16T00:42:16.051Z,7.80
2022-11-16T00:45:03.841Z,6.23
2022-11-16T00:47:51.110Z,6.33
2022-11-16T00:50:40.254Z,6.80
2022-11-16T00:53:28.088Z,6.77
2022-11-16T00:56:15.938Z,7.57
2022-11-16T00:59:03.400Z,8.57
2022-11-16T01:01:51.151Z,6.93
2022-11-16T01:04:38.477Z,7.47
2022-11-16T01:07:26.368Z,6.63
2022-11-16T01:10:14.799Z,7.63
2022-11-16T01:13:02.596Z,7.47
2022-11-16T01:15:50.619Z,6.53
2022-11-16T01:18:38.253Z,9.43
2022-11-16T01:21:26.041Z,7.40
2022-11-16T01:24:13.342Z,7.13
2022-11-16T01:27:01.198Z,7.27
2022-11-16T01:29:49.075Z,6.30
2022-11-16T01:32:36.706Z,7.87
2022-11-16T01:35:24.478Z,6.80
2022-11-16T01:38:11.774Z,7.00
2022-11-16T01:40:59.598Z,6.33
2022-11-16T01:43:56.460Z,6.63
2022-11-16T01:46:44.234Z,8.17
2022-11-16T01:49:33.121Z,7.03
2022-11-16T01:52:23.306Z,7.70
2022-11-16T01:55:11.945Z,5.80
2022-11-16T01:57:59.523Z,6.90
2022-11-16T02:00:49.526Z,7.07
2022-11-16T02:03:38.576Z,5.40
2022-11-16T02:06:29.509Z,8.53
2022-11-16T02:09:46.206Z,5.70
2022-11-16T02:12:44.147Z,6.03
2022-11-16T02:15:37.571Z,6.40
2022-11-16T02:18:25.312Z,6.40
2022-11-16T02:21:36.193Z,5.70
2022-11-16T02:24:30.084Z,7.47
2022-11-16T02:27:34.787Z,6.43
2022-11-16T02:30:22.441Z,8.40
2022-11-16T02:33:12.983Z,7.40
2022-11-16T02:36:01.475Z,7.20
2022-11-16T02:38:52.801Z,6.00
2022-11-16T02:41:41.280Z,9.77
2022-11-16T02:44:33.308Z,9.27
2022-11-16T02:47:24.223Z,6.87
2022-11-16T02:50:13.844Z,6.70
2022-11-16T02:53:01.757Z,10.57
2022-11-16T02:55:49.196Z,6.07
2022-11-16T02:58:37.155Z,9.63
2022-11-16T03:01:37.675Z,6.50
2022-11-16T03:04:45.205Z,6.87
2022-11-16T03:07:34.675Z,6.03
2022-11-16T03:10:41.443Z,10.43
2022-11-16T03:13:31.703Z,10.07
2022-11-16T03:16:33.670Z,8.90
2022-11-16T03:19:25.096Z,8.07
2022-11-16T03:22:19.171Z,7.20
2022-11-16T03:25:07.928Z,7.77
2022-11-16T03:28:03.114Z,7.77
2022-11-16T03:30:53.586Z,7.23
2022-11-16T03:33:44.675Z,7.00
2022-11-16T03:36:33.452Z,8.77
2022-11-16T03:39:27.280Z,7.43
2022-11-16T03:42:14.711Z,7.97
2022-11-16T03:45:03.758Z,10.60
2022-11-16T03:47:52.254Z,8.33
2022-11-16T03:50:40.923Z,9.07
2022-11-16T03:53:28.174Z,8.03
2022-11-16T03:56:15.915Z,8.13
2022-11-16T03:59:03.710Z,10.07
2022-11-16T04:01:51.467Z,12.57
2022-11-16T04:04:57.417Z,11.37
2022-11-16T04:08:04.190Z,10.93
2022-11-16T04:11:10.358Z,15.20
2022-11-16T04:14:16.960Z,12.37
2022-11-16T04:17:23.675Z,17.30
2022-11-16T04:20:31.395Z,14.93
2022-11-16T04:23:37.468Z,14.63
2022-11-16T04:26:45.421Z,12.07
2022-11-16T04:29:33.124Z,16.13
2022-11-16T04:32:39.335Z,14.87
2022-11-16T04:35:47.120Z,16.70
2022-11-16T04:38:35.137Z,13.37
2022-11-16T04:41:41.286Z,16.40
2022-11-16T04:44:49.019Z,14.93
2022-11-16T04:47:36.291Z,14.57
2022-11-16T04:50:24.053Z,13.17
2022-11-16T04:53:11.870Z,14.13
2022-11-16T04:56:01.026Z,14.20
2022-11-16T04:58:48.549Z,15.47
2022-11-16T05:01:55.089Z,14.87
2022-11-16T05:04:43.143Z,14.53
2022-11-16T05:07:30.497Z,13.70
2022-11-16T05:10:18.581Z,15.57
2022-11-16T05:13:36.825Z,19.77
2022-11-16T05:16:24.580Z,15.27
2022-11-16T05:19:30.606Z,15.80
2022-11-16T05:22:18.412Z,12.03
2022-11-16T05:25:06.413Z,13.07
2022-11-16T05:27:54.410Z,14.90
2022-11-16T05:30:41.802Z,14.17
2022-11-16T05:33:29.095Z,14.00
2022-11-16T05:36:16.353Z,14.00
2022-11-16T05:39:04.142Z,11.73
2022-11-16T05:41:51.843Z,10.63
2022-11-16T05:44:39.515Z,12.00
2022-11-16T05:47:27.394Z,15.40
2022-11-16T05:50:15.014Z,13.43
2022-11-16T05:53:02.899Z,11.33
2022-11-16T05:55:50.146Z,12.63
2022-11-16T05:58:38.248Z,12.93
2022-11-16T06:01:26.007Z,11.70
2022-11-16T06:04:14.366Z,9.33
2022-11-16T06:07:01.846Z,13.90
2022-11-16T06:09:49.764Z,8.43
2022-11-16T06:12:36.972Z,11.13
2022-11-16T06:15:24.781Z,9.33
2022-11-16T06:18:12.235Z,10.67
2022-11-16T06:21:00.406Z,9.57
2022-11-16T06:23:48.135Z,10.43
2022-11-16T06:26:36.359Z,11.40
2022-11-16T06:29:23.862Z,12.07
2022-11-16T06:32:11.353Z,13.60
2022-11-16T06:34:58.716Z,10.17
2022-11-16T06:37:46.643Z,13.70
2022-11-16T06:40:34.059Z,7.97
2022-11-16T06:43:22.347Z,12.60
2022-11-16T06:46:09.824Z,10.03
2022-11-16T06:48:57.763Z,11.37
2022-11-16T06:51:45.379Z,9.30
2022-11-16T06:54:33.184Z,10.30
2022-11-16T06:57:21.622Z,12.77
2022-11-16T07:00:10.574Z,10.10
2022-11-16T07:03:08.376Z,12.40
2022-11-16T07:05:56.163Z,12.20
2022-11-16T07:08:43.918Z,14.03
2022-11-16T07:11:32.848Z,9.17
2022-11-16T07:14:20.295Z,14.87
2022-11-16T07:17:09.651Z,15.67
2022-11-16T07:20:26.517Z,11.53
2022-11-16T07:23:36.089Z,13.30
2022-11-16T07:26:26.432Z,15.20
2022-11-16T07:29:15.647Z,15.97
2022-11-16T07:32:03.126Z,14.53
2022-11-16T07:34:50.587Z,16.10
2022-11-16T07:37:38.007Z,15.80
2022-11-16T07:40:25.482Z,13.77
2022-11-16T07:43:13.626Z,16.50
2022-11-16T07:49:21.193Z,12.63
2022-11-16T07:52:09.824Z,13.80
2022-11-16T07:54:57.810Z,11.23
2022-11-16T07:57:50.351Z,22.30
2022-11-16T08:00:40.403Z,12.27
2022-11-16T08:03:27.857Z,14.13
2022-11-16T08:06:18.044Z,12.87
2022-11-16T08:09:05.546Z,16.83
2022-11-16T08:11:53.508Z,14.40
2022-11-16T08:14:40.959Z,16.43
2022-11-16T08:17:28.425Z,13.83
2022-11-16T08:20:16.684Z,21.43
2022-11-16T08:23:04.176Z,11.33
2022-11-16T08:25:51.848Z,12.67
2022-11-16T08:28:39.624Z,11.63
2022-11-16T08:31:28.138Z,8.53
2022-11-16T08:34:16.941Z,9.47
2022-11-16T08:37:04.368Z,7.93
2022-11-16T08:39:51.818Z,8.30
2022-11-16T08:42:43.448Z,6.60
2022-11-16T08:45:32.391Z,6.00
2022-11-16T08:48:20.475Z,6.20
2022-11-16T08:51:17.447Z,6.70
2022-11-16T08:54:06.348Z,8.40
2022-11-16T08:56:53.758Z,4.97
2022-11-16T08:59:41.460Z,6.17
2022-11-16T09:02:28.918Z,4.77
2022-11-16T09:05:16.853Z,6.77
2022-11-16T09:08:05.666Z,5.07
2022-11-16T09:10:53.124Z,4.70
2022-11-16T09:13:40.638Z,5.50
2022-11-16T09:16:28.741Z,4.90
2022-11-16T09:19:16.618Z,4.90
2022-11-16T09:22:04.260Z,6.40
2022-11-16T09:24:51.716Z,3.83
2022-11-16T09:27:39.220Z,4.77
2022-11-16T09:30:27.122Z,3.90
2022-11-16T09:33:14.363Z,6.17
2022-11-16T09:36:09.419Z,6.27
2022-11-16T09:42:35.243Z,7.83
2022-11-16T09:45:37.784Z,4.70
2022-11-16T09:48:26.207Z,6.90
2022-11-16T09:51:15.614Z,8.60
2022-11-16T09:54:06.556Z,6.43
2022-11-16T09:56:59.973Z,7.13
2022-11-16T09:59:49.545Z,5.07
2022-11-16T10:02:43.813Z,5.27
2022-11-16T10:05:39.102Z,6.33
2022-11-16T10:08:43.779Z,4.20
2022-11-16T10:11:43.410Z,4.70
2022-11-16T10:14:49.677Z,5.23
2022-11-16T10:17:40.783Z,4.30
2022-11-16T10:20:34.195Z,4.63
2022-11-16T10:23:22.067Z,6.33
2022-11-16T10:26:45.753Z,4.33
2022-11-16T10:29:46.490Z,4.93
2022-11-16T10:32:35.874Z,6.57
2022-11-16T10:35:26.527Z,6.13
2022-11-16T10:38:14.996Z,6.03
2022-11-16T10:41:05.529Z,7.80
2022-11-16T10:43:53.653Z,5.67
2022-11-16T10:46:45.035Z,5.57
2022-11-16T10:49:39.988Z,5.63
2022-11-16T10:52:38.375Z,6.63
2022-11-16T10:55:44.774Z,4.97
2022-11-16T10:59:13.301Z,6.67
2022-11-16T11:02:32.957Z,6.83
2022-11-16T11:05:32.039Z,4.60
2022-11-16T11:08:32.903Z,6.77
2022-11-16T11:11:40.591Z,5.73
2022-11-16T11:14:27.991Z,5.50
2022-11-16T11:17:18.400Z,5.67
2022-11-16T11:20:21.770Z,5.87
2022-11-16T11:23:15.087Z,6.13
2022-11-16T11:26:02.603Z,5.90
2022-11-16T11:28:50.949Z,4.30
2022-11-16T11:31:46.406Z,6.57
2022-11-16T11:34:40.581Z,5.13
2022-11-16T11:37:38.900Z,5.33
2022-11-16T11:40:27.640Z,4.17
2022-11-16T11:43:25.623Z,4.53
2022-11-16T11:46:16.046Z,5.63
2022-11-16T11:49:28.013Z,3.27
2022-11-16T11:52:27.181Z,6.73
2022-11-16T11:55:16.783Z,4.07
2022-11-16T11:58:04.733Z,8.07
2022-11-16T12:01:04.863Z,3.13
2022-11-16T12:04:10.904Z,4.23
2022-11-16T12:07:08.138Z,3.27
2022-11-16T12:10:05.184Z,5.97
2022-11-16T12:13:11.917Z,4.03
2022-11-16T12:16:18.008Z,8.87
2022-11-16T12:19:21.319Z,4.27
2022-11-16T12:22:11.437Z,4.77
2022-11-16T12:25:17.745Z,4.13
2022-11-16T12:28:20.652Z,3.33
2022-11-16T12:31:11.438Z,6.00
2022-11-16T12:34:16.322Z,3.03
2022-11-16T12:37:09.664Z,4.80
2022-11-16T12:39:57.069Z,5.13
2022-11-16T12:42:51.205Z,3.53
2022-11-16T12:46:05.189Z,5.13
2022-11-16T12:48:55.771Z,4.40
2022-11-16T12:51:43.198Z,5.47
2022-11-16T12:54:57.899Z,3.83
2022-11-16T12:57:59.251Z,3.40
2022-11-16T13:00:52.214Z,3.63
2022-11-16T13:03:43.668Z,2.37
2022-11-16T13:06:37.587Z,3.43
2022-11-16T13:09:27.039Z,3.33
2022-11-16T13:12:17.191Z,3.47
2022-11-16T13:15:04.996Z,3.05
2022-11-16T13:17:55.876Z,4.93
2022-11-16T13:20:52.956Z,3.90
2022-11-16T13:24:06.693Z,3.97
2022-11-16T13:27:11.315Z,2.17
2022-11-16T13:30:01.569Z,3.65
2022-11-16T13:33:07.966Z,4.35
2022-11-16T13:35:55.465Z,3.83
2022-11-16T13:39:02.945Z,6.85
2022-11-16T13:42:06.982Z,2.17
2022-11-16T13:44:55.056Z,2.10
2022-11-16T13:47:49.004Z,2.47
2022-11-16T13:50:38.923Z,2.20
2022-11-16T13:56:48.189Z,4.15
2022-11-16T13:59:36.869Z,1.83
2022-11-16T14:02:31.628Z,1.85
2022-11-16T14:05:38.953Z,2.60
2022-11-16T14:08:26.360Z,3.10
2022-11-16T14:11:37.782Z,2.17
2022-11-16T14:14:46.902Z,3.00
2022-11-16T14:17:55.882Z,3.43
2022-11-16T14:20:53.804Z,3.00
2022-11-16T14:23:56.789Z,6.20
2022-11-16T14:26:53.226Z,3.33
2022-11-16T14:29:58.854Z,2.77
2022-11-16T14:32:54.576Z,3.17
2022-11-16T14:35:42.001Z,3.90
2022-11-16T14:38:44.941Z,3.23
2022-11-16T14:41:32.408Z,4.17
2022-11-16T14:44:21.781Z,3.63
2022-11-16T14:47:19.308Z,3.73
2022-11-16T14:50:18.103Z,3.80
2022-11-16T14:53:07.237Z,3.13
2022-11-16T14:56:06.100Z,4.57
2022-11-16T14:58:56.141Z,4.70
2022-11-16T15:01:43.656Z,3.72
2022-11-16T15:04:31.652Z,6.33
2022-11-16T15:07:21.109Z,7.03
2022-11-16T15:10:15.480Z,3.43
2022-11-16T15:13:04.185Z,5.63
2022-11-16T15:16:08.620Z,8.52
2022-11-16T15:18:57.269Z,2.80
2022-11-16T15:21:52.195Z,4.43
2022-11-16T15:24:39.421Z,5.45
2022-11-16T15:27:40.691Z,7.60
2022-11-16T15:30:29.700Z,4.80
2022-11-16T15:33:18.745Z,5.37
2022-11-16T15:36:25.733Z,4.47
2022-11-16T15:39:15.023Z,3.20
2022-11-16T15:42:04.222Z,4.87
2022-11-16T15:44:52.635Z,4.43
2022-11-16T15:47:40.742Z,7.73
2022-11-16T15:50:28.697Z,9.23
2022-11-16T15:53:34.202Z,11.77
2022-11-16T15:56:28.618Z,5.77
2022-11-16T15:59:30.971Z,8.37
2022-11-16T16:02:19.757Z,8.70
2022-11-16T16:05:07.311Z,10.63
2022-11-16T16:07:54.726Z,11.30
2022-11-16T16:10:42.314Z,10.37
2022-11-16T16:13:32.644Z,8.93
2022-11-16T16:16:26.856Z,11.50
2022-11-16T16:21:47.210Z,13.90
2022-11-16T16:24:35.690Z,8.33
2022-11-16T16:27:25.127Z,7.93
2022-11-16T16:30:14.711Z,7.43
2022-11-16T16:33:02.477Z,10.13
2022-11-16T16:35:50.910Z,12.00
2022-11-16T16:38:38.886Z,6.77
2022-11-16T16:41:26.413Z,8.37
2022-11-16T16:44:15.289Z,7.07
2022-11-16T16:47:02.649Z,8.73
2022-11-16T16:49:50.174Z,8.40
2022-11-16T16:52:38.071Z,9.67
2022-11-16T16:55:26.544Z,8.53
2022-11-16T16:58:14.518Z,10.83
2022-11-16T17:01:06.210Z,11.27
2022-11-16T17:03:53.884Z,14.40
2022-11-16T17:06:46.192Z,14.83
2022-11-16T17:09:33.943Z,20.53
2022-11-16T17:12:21.156Z,18.63
2022-11-16T17:15:08.870Z,17.90
2022-11-16T17:17:57.669Z,16.90
2022-11-16T17:20:45.605Z,13.70
2022-11-16T17:23:33.736Z,12.77
2022-11-16T17:26:21.746Z,17.67
2022-11-16T17:29:09.136Z,16.83
2022-11-16T17:31:56.616Z,12.90
2022-11-16T17:34:44.082Z,17.87
2022-11-16T17:37:31.529Z,15.30
2022-11-16T17:40:18.897Z,15.53
2022-11-16T17:43:06.099Z,15.33
2022-11-16T17:45:53.505Z,10.57
2022-11-16T17:48:42.205Z,12.57
2022-11-16T17:51:29.909Z,12.50
2022-11-16T17:54:17.348Z,13.00
2022-11-16T17:57:04.786Z,15.20
2022-11-16T17:59:52.036Z,10.97
2022-11-16T18:02:39.420Z,11.87
2022-11-16T18:05:26.655Z,13.70
2022-11-16T18:08:14.082Z,10.73
2022-11-16T18:11:05.589Z,9.83
2022-11-16T18:13:57.201Z,10.03
2022-11-16T18:16:47.961Z,9.47
2022-11-16T18:19:35.729Z,9.80
2022-11-16T18:22:23.124Z,10.80
2022-11-16T18:25:10.994Z,13.40
2022-11-16T18:27:58.824Z,10.27
2022-11-16T18:30:46.366Z,8.07
2022-11-16T18:33:34.245Z,12.67
2022-11-16T18:36:22.952Z,10.80
2022-11-16T18:39:10.480Z,8.17
2022-11-16T18:41:57.947Z,11.00
2022-11-16T18:44:46.426Z,10.17
2022-11-16T18:47:33.940Z,8.80
2022-11-16T18:50:26.497Z,7.90
2022-11-16T18:53:14.341Z,7.57
2022-11-16T18:56:02.115Z,7.27
2022-11-16T18:58:51.504Z,9.53
2022-11-16T19:01:39.639Z,7.77
2022-11-16T19:04:28.566Z,9.80
2022-11-16T19:07:16.061Z,7.23
2022-11-16T19:10:03.656Z,14.83
2022-11-16T19:12:51.130Z,10.87
2022-11-16T19:15:38.577Z,8.60
2022-11-16T19:18:26.484Z,6.77
2022-11-16T19:21:15.610Z,8.77
2022-11-16T19:24:03.155Z,7.47
2022-11-16T19:26:50.493Z,15.43
2022-11-16T19:29:38.124Z,8.53
2022-11-16T19:32:25.882Z,11.43
2022-11-16T19:35:16.026Z,10.73
2022-11-16T19:38:03.984Z,6.83
2022-11-16T19:40:51.579Z,6.07
2022-11-16T19:43:39.672Z,8.43
2022-11-16T19:46:28.340Z,7.97
2022-11-16T19:49:20.250Z,8.77
2022-11-16T19:52:07.898Z,15.77
2022-11-16T19:54:56.033Z,6.80
2022-11-16T19:57:43.525Z,7.90
2022-11-16T20:00:31.044Z,7.63
2022-11-16T20:03:18.444Z,7.33
2022-11-16T20:06:06.832Z,6.07
2022-11-16T20:09:02.131Z,7.73
2022-11-16T20:11:49.679Z,9.97
2022-11-16T20:14:37.365Z,9.33
2022-11-16T20:17:24.765Z,12.77
2022-11-16T20:20:12.443Z,9.87
2022-11-16T20:22:59.678Z,10.00
2022-11-16T20:25:47.099Z,10.17
2022-11-16T20:28:35.610Z,13.50
2022-11-16T20:31:24.194Z,9.57
2022-11-16T20:34:16.444Z,8.13
2022-11-16T20:37:03.900Z,9.27
2022-11-16T20:39:53.312Z,8.53
2022-11-16T20:42:40.786Z,7.87
2022-11-16T20:45:28.052Z,7.93
2022-11-16T20:48:15.531Z,8.00
2022-11-16T20:51:03.154Z,7.67
2022-11-16T20:53:50.823Z,7.83
2022-11-16T20:56:38.247Z,7.57
2022-11-16T20:59:25.735Z,9.27
2022-11-16T21:02:13.178Z,8.83
2022-11-16T21:05:00.764Z,7.10
2022-11-16T21:07:48.266Z,11.47
2022-11-16T21:10:37.953Z,7.63
2022-11-16T21:13:44.080Z,7.37
2022-11-16T21:16:32.056Z,4.07
2022-11-16T21:19:19.605Z,5.13
2022-11-16T21:22:07.036Z,4.77
2022-11-16T21:24:54.342Z,4.87
2022-11-16T21:27:41.784Z,4.23
2022-11-16T21:30:29.204Z,3.77
2022-11-16T21:33:16.657Z,5.07
2022-11-16T21:36:08.583Z,4.43
2022-11-16T21:38:56.229Z,5.40
2022-11-16T21:41:43.635Z,4.67
2022-11-16T21:44:42.010Z,3.60
2022-11-16T21:47:29.898Z,4.70
2022-11-16T21:50:31.167Z,4.77
2022-11-16T21:53:19.868Z,4.73
2022-11-16T21:56:11.149Z,4.80
2022-11-16T21:58:58.904Z,8.63
2022-11-16T22:02:15.512Z,3.33
2022-11-16T22:05:22.092Z,2.70
2022-11-16T22:08:13.821Z,6.03
2022-11-16T22:11:01.214Z,4.60
2022-11-16T22:13:49.672Z,4.03
2022-11-16T22:16:37.400Z,5.07
2022-11-16T22:19:24.767Z,4.67
2022-11-16T22:22:12.291Z,3.60
2022-11-16T22:24:59.744Z,3.97
2022-11-16T22:28:13.896Z,4.70
2022-11-16T22:31:03.061Z,4.17
2022-11-16T22:33:53.591Z,3.60
2022-11-16T22:36:40.859Z,4.70
2022-11-16T22:39:28.317Z,3.80
2022-11-16T22:42:15.727Z,4.07
2022-11-16T22:45:03.175Z,5.47
2022-11-16T22:47:54.752Z,3.30
2022-11-16T22:50:42.524Z,6.93
2022-11-16T22:53:29.910Z,4.10
2022-11-16T22:56:17.317Z,6.60
2022-11-16T22:59:05.692Z,5.37
2022-11-16T23:01:53.082Z,2.63
2022-11-16T23:04:40.484Z,2.60
2022-11-16T23:07:27.927Z,2.73
2022-11-16T23:10:15.445Z,2.10
2022-11-16T23:13:21.049Z,3.73
2022-11-16T23:16:08.571Z,2.63
2022-11-16T23:18:56.951Z,3.57
2022-11-16T23:22:07.228Z,4.07
2022-11-16T23:25:13.462Z,2.77
2022-11-16T23:28:04.894Z,3.67
2022-11-16T23:30:52.515Z,3.27
2022-11-16T23:33:45.724Z,3.33
2022-11-16T23:36:32.952Z,6.40
2022-11-16T23:39:20.374Z,2.97
2022-11-16T23:42:27.024Z,2.97
2022-11-16T23:45:14.513Z,3.83
2022-11-16T23:48:01.945Z,2.47
2022-11-16T23:50:49.414Z,4.17
2022-11-16T23:53:37.084Z,3.20
2022-11-16T23:56:24.852Z,2.60
2022-11-16T23:59:12.086Z,3.00
